South River, Missouri
Current Conditions -  °F | °C
As of 6:54 PM on Tuesday 25 Nov 2014 (Local Time) from KUIN Reporting Station
Clear Clear  
Wind Chill: 30°   Ceiling: Unl
Heat Index: 30°   Visibility: 10mi
Dew Point: 21°   Wind: 3mph
Humidity: 69%   Direction: 150°SSE
Pressure: 30.14"   Gusts: NA
Location:  39.7865°N, 91.559°W
Report Text: KUIN 260054Z AUTO 15003KT 10SM CLR M01/M06 A3014 RMK AO2 SLP215 T10111061
Loading
Personal Weather Stations






























Interactive Weather Map New forecast layout! Learn more

10-Day Weather Forecast

Advertisements
Track Severe Weather on mobile